Time;durP1;ratioP1;P1;durP2;ratioP2;P2;SDS_P1;SDS_P2;PMS_P1;PMS_P2;Temp;Humidity;BMP_temperature;BMP_pressure;BME280_temperature;BME280_humidity;BME280_pressure;Samples;Min_cycle;Max_cycle;Signal;HPM_P1;HPM_P2
2023/01/16 00:02:00;;;;;;;1.23;0.77;;;;;;;;;;5072683;28;20407;-84
2023/01/16 00:04:27;;;;;;;2.25;0.75;;;;;;;;;;5072458;28;20490;-84
2023/01/16 00:06:53;;;;;;;2.00;0.70;;;;;;;;;;5064521;28;20380;-84
2023/01/16 00:09:19;;;;;;;1.75;0.70;;;;;;;;;;5071078;28;20376;-84
2023/01/16 00:11:45;;;;;;;1.98;0.88;;;;;;;;;;5084061;28;20893;-84
2023/01/16 00:14:11;;;;;;;0.90;0.60;;;;;;;;;;5083961;28;20742;-83
2023/01/16 00:16:37;;;;;;;2.33;0.75;;;;;;;;;;5090248;28;20468;-83
2023/01/16 00:19:03;;;;;;;1.52;0.65;;;;;;;;;;5086340;28;20374;-83
2023/01/16 00:21:29;;;;;;;1.92;0.82;;;;;;;;;;5049148;28;20407;-84
2023/01/16 00:23:56;;;;;;;2.10;0.77;;;;;;;;;;5072482;28;20399;-83
2023/01/16 00:26:22;;;;;;;2.67;0.97;;;;;;;;;;5072378;28;20449;-84
2023/01/16 00:28:48;;;;;;;1.70;0.90;;;;;;;;;;5072391;28;20463;-84
2023/01/16 00:31:14;;;;;;;3.08;1.00;;;;;;;;;;5054276;28;20833;-84
2023/01/16 00:33:40;;;;;;;1.15;0.60;;;;;;;;;;5072007;28;20423;-83
2023/01/16 00:36:07;;;;;;;2.97;0.90;;;;;;;;;;5072336;28;20888;-84
2023/01/16 00:38:33;;;;;;;2.10;1.08;;;;;;;;;;5071891;28;20441;-84
2023/01/16 00:40:59;;;;;;;3.22;0.90;;;;;;;;;;5072114;28;20438;-84
2023/01/16 00:43:25;;;;;;;1.60;0.80;;;;;;;;;;5071901;28;20447;-84
2023/01/16 00:45:51;;;;;;;2.72;0.90;;;;;;;;;;5072163;28;20391;-84
2023/01/16 00:48:17;;;;;;;2.63;0.75;;;;;;;;;;5070537;28;20376;-83
2023/01/16 00:50:43;;;;;;;1.40;0.80;;;;;;;;;;5070539;28;20391;-83
2023/01/16 00:53:09;;;;;;;1.75;0.95;;;;;;;;;;5072072;28;20372;-83
2023/01/16 00:55:36;;;;;;;1.88;0.80;;;;;;;;;;5071955;28;20371;-84
2023/01/16 00:58:03;;;;;;;2.25;0.75;;;;;;;;;;5071987;28;20919;-83
2023/01/16 01:00:29;;;;;;;2.20;1.05;;;;;;;;;;5071752;28;20388;-84
2023/01/16 01:02:55;;;;;;;1.80;1.05;;;;;;;;;;5078029;28;20388;-84
2023/01/16 01:05:21;;;;;;;2.33;1.30;;;;;;;;;;5071069;28;20456;-84
2023/01/16 01:07:47;;;;;;;1.80;1.00;;;;;;;;;;5070954;28;20411;-83
2023/01/16 01:10:13;;;;;;;2.70;1.20;;;;;;;;;;5071376;28;20952;-83
2023/01/16 01:12:39;;;;;;;2.47;1.00;;;;;;;;;;5076422;28;20371;-84
2023/01/16 01:15:05;;;;;;;2.27;1.07;;;;;;;;;;5083974;28;20475;-84
2023/01/16 01:17:31;;;;;;;2.25;0.82;;;;;;;;;;5082356;28;20384;-83
2023/01/16 01:19:57;;;;;;;2.30;0.95;;;;;;;;;;5081151;28;20459;-84
2023/01/16 01:22:23;;;;;;;2.00;0.90;;;;;;;;;;5091750;28;21165;-84
2023/01/16 01:24:50;;;;;;;2.13;0.82;;;;;;;;;;5075991;28;20431;-84
2023/01/16 01:27:16;;;;;;;1.73;0.80;;;;;;;;;;5071700;28;20816;-83
2023/01/16 01:29:42;;;;;;;2.10;0.82;;;;;;;;;;5071589;28;20383;-84
2023/01/16 01:32:08;;;;;;;2.00;1.10;;;;;;;;;;5071240;28;20414;-83
2023/01/16 01:34:34;;;;;;;1.17;0.70;;;;;;;;;;5071623;28;20383;-84
2023/01/16 01:37:01;;;;;;;1.65;0.82;;;;;;;;;;5071536;28;20409;-83
2023/01/16 01:39:27;;;;;;;1.65;0.70;;;;;;;;;;5071452;28;20390;-83
2023/01/16 01:42:41;;;;;;;1.33;0.70;;;;;;;;;;5073900;28;20390;-84
2023/01/16 01:44:59;;;;;;;1.55;0.75;;;;;;;;;;5071260;28;20455;-84
2023/01/16 01:47:29;;;;;;;1.00;0.60;;;;;;;;;;5071116;28;20420;-84
2023/01/16 01:49:55;;;;;;;1.13;0.70;;;;;;;;;;5071046;28;21011;-84
2023/01/16 01:52:22;;;;;;;2.15;1.17;;;;;;;;;;5070484;28;20382;-84
2023/01/16 01:54:51;;;;;;;1.70;0.80;;;;;;;;;;5071432;28;20391;-83
2023/01/16 01:57:20;;;;;;;2.10;0.80;;;;;;;;;;5051772;28;20756;-84
2023/01/16 01:59:49;;;;;;;1.83;0.90;;;;;;;;;;5069368;28;20398;-84
2023/01/16 02:02:19;;;;;;;1.40;0.85;;;;;;;;;;5069692;28;20435;-83
2023/01/16 02:04:45;;;;;;;1.65;0.77;;;;;;;;;;5067591;28;20444;-84
2023/01/16 02:07:14;;;;;;;1.88;0.90;;;;;;;;;;5069889;28;20391;-84
2023/01/16 02:09:40;;;;;;;1.85;0.80;;;;;;;;;;5069824;28;20408;-84
2023/01/16 02:12:08;;;;;;;2.10;1.00;;;;;;;;;;5070182;28;20722;-85
2023/01/16 02:14:37;;;;;;;2.15;1.00;;;;;;;;;;5085694;28;20819;-83
2023/01/16 02:19:52;;;;;;;1.73;0.90;;;;;;;;;;5072300;28;20377;-83
2023/01/16 02:22:30;;;;;;;2.28;1.00;;;;;;;;;;5073224;28;20413;-83
2023/01/16 02:25:26;;;;;;;2.63;1.10;;;;;;;;;;5069604;28;20403;-83
2023/01/16 02:27:51;;;;;;;2.30;1.50;;;;;;;;;;5046770;28;20742;-83
2023/01/16 02:30:36;;;;;;;1.90;1.00;;;;;;;;;;5055921;28;20378;-83
2023/01/16 02:33:08;;;;;;;1.33;0.80;;;;;;;;;;5058082;28;20413;-83
2023/01/16 02:35:48;;;;;;;1.90;0.90;;;;;;;;;;5056020;28;20457;-83
2023/01/16 02:38:21;;;;;;;2.22;1.52;;;;;;;;;;5055731;28;20449;-82
2023/01/16 02:41:06;;;;;;;2.63;1.20;;;;;;;;;;5055260;28;20418;-83
2023/01/16 02:43:34;;;;;;;2.13;0.90;;;;;;;;;;5057217;28;20484;-83
2023/01/16 02:46:03;;;;;;;1.20;0.90;;;;;;;;;;5055283;28;20429;-83
2023/01/16 02:48:35;;;;;;;1.90;0.82;;;;;;;;;;5054527;28;20808;-83
2023/01/16 02:51:10;;;;;;;1.75;0.80;;;;;;;;;;5074093;28;20443;-83
2023/01/16 02:53:42;;;;;;;1.40;0.80;;;;;;;;;;5056218;28;20877;-83
2023/01/16 02:56:12;;;;;;;1.77;0.80;;;;;;;;;;5070874;28;20390;-83
2023/01/16 02:58:44;;;;;;;0.90;0.70;;;;;;;;;;5073421;28;20387;-83
2023/01/16 03:01:12;;;;;;;0.65;0.63;;;;;;;;;;5074095;28;20439;-83
2023/01/16 03:03:43;;;;;;;1.13;0.75;;;;;;;;;;5076097;28;20896;-83
2023/01/16 03:06:24;;;;;;;1.08;0.60;;;;;;;;;;5065082;28;20477;-83
2023/01/16 03:09:03;;;;;;;0.93;0.65;;;;;;;;;;5061359;28;20388;-83
2023/01/16 03:11:29;;;;;;;1.00;0.70;;;;;;;;;;5053388;28;20394;-83
2023/01/16 03:14:02;;;;;;;1.33;0.85;;;;;;;;;;5062018;28;20397;-83
2023/01/16 03:16:37;;;;;;;1.33;1.20;;;;;;;;;;5058738;28;20632;-83
2023/01/16 03:19:15;;;;;;;1.23;0.93;;;;;;;;;;5072863;28;20453;-83
2023/01/16 03:21:41;;;;;;;1.20;1.10;;;;;;;;;;5071249;28;20412;-83
2023/01/16 03:24:13;;;;;;;2.45;1.48;;;;;;;;;;5053429;28;20419;-83
2023/01/16 03:26:39;;;;;;;1.92;1.40;;;;;;;;;;5073162;28;20514;-83
2023/01/16 03:29:21;;;;;;;1.38;1.05;;;;;;;;;;5072999;28;20820;-83
2023/01/16 03:32:05;;;;;;;2.47;1.40;;;;;;;;;;5072691;28;20412;-83
2023/01/16 03:34:39;;;;;;;4.55;3.25;;;;;;;;;;5072782;28;20408;-83
2023/01/16 03:37:18;;;;;;;18.40;11.98;;;;;;;;;;5073393;28;20752;-83
2023/01/16 03:39:46;;;;;;;22.92;13.95;;;;;;;;;;5075807;28;20460;-83
2023/01/16 03:42:17;;;;;;;10.93;8.38;;;;;;;;;;5072671;28;20379;-83
2023/01/16 03:44:49;;;;;;;12.20;8.88;;;;;;;;;;5072636;28;20932;-83
2023/01/16 03:47:20;;;;;;;10.45;7.78;;;;;;;;;;5072705;28;20395;-83
2023/01/16 03:49:48;;;;;;;9.00;6.72;;;;;;;;;;5072935;28;20372;-83
2023/01/16 03:52:16;;;;;;;7.00;5.32;;;;;;;;;;5072618;28;20379;-83
2023/01/16 03:54:51;;;;;;;5.55;4.50;;;;;;;;;;5065485;28;20376;-83
2023/01/16 03:57:21;;;;;;;4.43;3.97;;;;;;;;;;5072878;28;20733;-83
2023/01/16 03:59:47;;;;;;;5.05;3.75;;;;;;;;;;5072858;28;20396;-83
2023/01/16 04:02:18;;;;;;;2.95;2.30;;;;;;;;;;5072699;28;20819;-83
2023/01/16 04:05:07;;;;;;;3.78;2.75;;;;;;;;;;5070118;28;20411;-83
2023/01/16 04:07:37;;;;;;;7.00;5.03;;;;;;;;;;5059472;28;20440;-83
2023/01/16 04:10:14;;;;;;;7.57;6.35;;;;;;;;;;5072537;28;20449;-83
2023/01/16 04:12:45;;;;;;;8.75;6.43;;;;;;;;;;5072540;28;20905;-83
2023/01/16 04:15:11;;;;;;;7.07;5.63;;;;;;;;;;5076711;28;20974;-83
2023/01/16 04:17:39;;;;;;;16.88;12.07;;;;;;;;;;5089627;28;20386;-83
2023/01/16 04:20:06;;;;;;;12.40;9.40;;;;;;;;;;5084910;28;20387;-83
2023/01/16 04:22:32;;;;;;;12.68;10.23;;;;;;;;;;5077464;28;20392;-83
2023/01/16 04:24:59;;;;;;;13.20;9.95;;;;;;;;;;5081299;28;20398;-83
2023/01/16 04:27:25;;;;;;;7.90;6.70;;;;;;;;;;5072357;28;20411;-83
2023/01/16 04:29:51;;;;;;;3.35;2.50;;;;;;;;;;5072117;28;20434;-83
2023/01/16 04:32:17;;;;;;;4.53;3.83;;;;;;;;;;5072218;28;20475;-83
2023/01/16 04:34:43;;;;;;;2.80;2.23;;;;;;;;;;5072347;28;21012;-83
2023/01/16 04:37:12;;;;;;;2.33;1.70;;;;;;;;;;5072247;28;20737;-83
2023/01/16 04:39:38;;;;;;;1.50;1.40;;;;;;;;;;5072169;28;20392;-83
2023/01/16 04:42:04;;;;;;;1.65;1.40;;;;;;;;;;5072055;28;20376;-82
2023/01/16 04:44:30;;;;;;;2.17;1.58;;;;;;;;;;5072188;28;20412;-83
2023/01/16 04:46:56;;;;;;;1.92;1.30;;;;;;;;;;5072165;28;20403;-82
2023/01/16 04:49:22;;;;;;;2.95;1.50;;;;;;;;;;5071941;28;20733;-82
2023/01/16 04:51:48;;;;;;;2.67;1.58;;;;;;;;;;5072046;28;20372;-82
2023/01/16 04:54:15;;;;;;;1.48;1.35;;;;;;;;;;5071725;28;20383;-82
2023/01/16 04:56:41;;;;;;;1.83;1.60;;;;;;;;;;5072034;28;20383;-82
2023/01/16 04:59:07;;;;;;;1.90;1.52;;;;;;;;;;5073533;28;20408;-83
2023/01/16 05:01:36;;;;;;;2.28;1.13;;;;;;;;;;5072293;28;20445;-83
2023/01/16 05:04:02;;;;;;;2.28;1.30;;;;;;;;;;5063648;28;20532;-82
2023/01/16 05:06:28;;;;;;;5.88;5.28;;;;;;;;;;5059057;28;20397;-83
2023/01/16 05:08:54;;;;;;;3.35;3.05;;;;;;;;;;5053593;28;20431;-82
2023/01/16 05:11:20;;;;;;;2.05;1.60;;;;;;;;;;5055492;28;20409;-83
2023/01/16 05:13:46;;;;;;;2.22;1.80;;;;;;;;;;5071761;28;20474;-83
2023/01/16 05:16:12;;;;;;;2.10;1.90;;;;;;;;;;5063091;28;20534;-84
2023/01/16 05:18:38;;;;;;;2.53;1.73;;;;;;;;;;5058899;28;20440;-86
2023/01/16 05:21:04;;;;;;;1.50;1.35;;;;;;;;;;5058823;28;20385;-85
2023/01/16 05:23:33;;;;;;;2.15;1.63;;;;;;;;;;5063220;28;20437;-84
2023/01/16 05:25:59;;;;;;;3.07;2.67;;;;;;;;;;5058007;28;20960;-82
2023/01/16 05:28:25;;;;;;;2.38;1.70;;;;;;;;;;5076348;28;20372;-84
2023/01/16 05:30:51;;;;;;;2.40;1.53;;;;;;;;;;5070958;28;21082;-84
2023/01/16 05:33:17;;;;;;;1.70;1.40;;;;;;;;;;5070009;28;20376;-85
2023/01/16 05:35:43;;;;;;;4.60;4.05;;;;;;;;;;5070883;28;20392;-84
2023/01/16 05:38:09;;;;;;;4.35;3.80;;;;;;;;;;5072563;28;20386;-84
2023/01/16 05:40:35;;;;;;;4.03;3.30;;;;;;;;;;5073914;28;20383;-84
2023/01/16 05:43:01;;;;;;;4.25;3.40;;;;;;;;;;5071306;28;20390;-84
2023/01/16 05:45:27;;;;;;;3.00;2.70;;;;;;;;;;5071442;28;20395;-84
2023/01/16 05:47:53;;;;;;;3.50;2.88;;;;;;;;;;5073874;28;20382;-84
2023/01/16 05:50:19;;;;;;;3.00;2.70;;;;;;;;;;5071263;28;20849;-84
2023/01/16 05:52:45;;;;;;;3.20;2.53;;;;;;;;;;5068103;28;20387;-84
2023/01/16 05:55:11;;;;;;;4.07;2.63;;;;;;;;;;5071314;28;20818;-84
2023/01/16 05:57:37;;;;;;;2.60;2.23;;;;;;;;;;5068015;28;20405;-84
2023/01/16 06:00:04;;;;;;;2.45;2.22;;;;;;;;;;5066950;28;20388;-84
2023/01/16 06:02:30;;;;;;;3.90;1.90;;;;;;;;;;5071083;28;20419;-84
2023/01/16 06:04:56;;;;;;;2.88;1.83;;;;;;;;;;5066894;28;20448;-84
2023/01/16 06:07:22;;;;;;;2.10;1.75;;;;;;;;;;5069433;28;20408;-84
2023/01/16 06:09:48;;;;;;;2.67;2.00;;;;;;;;;;5069590;28;20917;-83
2023/01/16 06:12:18;;;;;;;2.28;1.90;;;;;;;;;;5075040;28;20413;-84
2023/01/16 06:14:44;;;;;;;1.88;1.67;;;;;;;;;;5061298;28;20416;-84
2023/01/16 06:17:10;;;;;;;3.03;2.15;;;;;;;;;;5074890;28;20885;-84
2023/01/16 06:19:36;;;;;;;2.95;2.08;;;;;;;;;;5074462;28;20380;-84
2023/01/16 06:22:02;;;;;;;2.77;2.00;;;;;;;;;;5071620;28;20383;-84
2023/01/16 06:24:28;;;;;;;4.03;2.40;;;;;;;;;;5074636;28;20422;-84
2023/01/16 06:26:54;;;;;;;4.85;3.40;;;;;;;;;;5074632;28;20371;-84
2023/01/16 06:29:20;;;;;;;2.35;1.70;;;;;;;;;;5074718;28;20927;-84
2023/01/16 06:31:46;;;;;;;3.00;1.80;;;;;;;;;;5085862;28;20386;-84
2023/01/16 06:34:12;;;;;;;1.83;1.70;;;;;;;;;;5087733;28;20452;-85
2023/01/16 06:36:38;;;;;;;2.63;1.98;;;;;;;;;;5092367;28;20746;-84
2023/01/16 06:39:04;;;;;;;2.00;1.80;;;;;;;;;;5077546;28;20376;-85
2023/01/16 06:41:30;;;;;;;6.00;3.92;;;;;;;;;;5074379;28;20386;-84
2023/01/16 06:43:56;;;;;;;4.38;2.90;;;;;;;;;;5074249;28;20888;-84
2023/01/16 06:46:22;;;;;;;5.18;4.68;;;;;;;;;;5074361;28;20384;-86
2023/01/16 06:48:48;;;;;;;7.43;6.75;;;;;;;;;;5074111;28;20397;-85
2023/01/16 06:51:14;;;;;;;7.65;6.65;;;;;;;;;;5064545;28;20881;-85
2023/01/16 06:53:40;;;;;;;6.95;6.25;;;;;;;;;;5069116;28;20458;-85
2023/01/16 06:56:06;;;;;;;6.25;4.35;;;;;;;;;;5068027;28;20385;-85
2023/01/16 06:58:32;;;;;;;4.05;3.25;;;;;;;;;;5066813;28;20379;-85
2023/01/16 07:00:58;;;;;;;2.60;2.40;;;;;;;;;;5073941;28;20892;-85
2023/01/16 07:03:25;;;;;;;2.20;1.95;;;;;;;;;;5063660;28;20401;-86
2023/01/16 07:05:51;;;;;;;2.97;2.30;;;;;;;;;;5073627;28;20713;-84
2023/01/16 07:08:17;;;;;;;3.80;2.65;;;;;;;;;;5074019;28;20399;-84
2023/01/16 07:10:43;;;;;;;3.80;2.50;;;;;;;;;;5070078;28;20403;-84
2023/01/16 07:13:09;;;;;;;3.70;2.93;;;;;;;;;;5064894;28;20406;-85
2023/01/16 07:23:59;;;;;;;2.97;2.63;;;;;;;;;;5061184;28;20463;-86
2023/01/16 07:26:26;;;;;;;2.50;2.30;;;;;;;;;;5073585;28;20457;-86
2023/01/16 07:28:53;;;;;;;4.95;4.55;;;;;;;;;;5073542;28;20376;-87
2023/01/16 07:31:19;;;;;;;5.35;4.85;;;;;;;;;;5067836;28;20762;-87
2023/01/16 07:33:45;;;;;;;3.10;2.80;;;;;;;;;;5073188;28;20399;-86
2023/01/16 07:36:11;;;;;;;4.67;2.40;;;;;;;;;;5067072;28;20383;-87
2023/01/16 07:38:37;;;;;;;2.83;2.53;;;;;;;;;;5070493;28;20884;-87
2023/01/16 07:41:03;;;;;;;5.05;3.83;;;;;;;;;;5055263;28;20478;-88
2023/01/16 07:43:30;;;;;;;4.53;3.30;;;;;;;;;;5073118;28;20415;-88
2023/01/16 07:45:56;;;;;;;3.80;3.00;;;;;;;;;;5073214;28;20388;-86
2023/01/16 07:48:22;;;;;;;5.40;3.67;;;;;;;;;;5073084;28;20517;-86
2023/01/16 07:50:55;;;;;;;3.97;3.33;;;;;;;;;;5072572;28;20372;-86
2023/01/16 07:53:22;;;;;;;4.90;3.00;;;;;;;;;;5073149;28;20901;-85
2023/01/16 07:55:55;;;;;;;6.68;3.60;;;;;;;;;;5069759;28;20386;-85
2023/01/16 07:58:21;;;;;;;4.25;3.80;;;;;;;;;;5075519;28;21005;-85
2023/01/16 08:00:48;;;;;;;4.20;3.20;;;;;;;;;;5072730;28;20383;-86
2023/01/16 08:03:14;;;;;;;3.33;2.80;;;;;;;;;;5072765;28;20408;-85
2023/01/16 08:05:42;;;;;;;3.17;2.90;;;;;;;;;;5064135;28;20386;-85
2023/01/16 08:08:08;;;;;;;3.70;3.08;;;;;;;;;;5072761;28;20382;-85
2023/01/16 08:10:34;;;;;;;3.38;3.00;;;;;;;;;;5072388;28;20457;-86
2023/01/16 08:13:01;;;;;;;3.83;3.43;;;;;;;;;;5072705;28;20392;-87
2023/01/16 08:15:27;;;;;;;12.95;10.90;;;;;;;;;;5072645;28;20410;-88
2023/01/16 08:17:53;;;;;;;9.00;7.10;;;;;;;;;;5072304;28;20388;-86
2023/01/16 08:20:19;;;;;;;7.18;5.78;;;;;;;;;;5069923;28;20383;-87
2023/01/16 08:22:49;;;;;;;6.72;5.38;;;;;;;;;;5069290;28;20392;-87
2023/01/16 08:25:16;;;;;;;5.03;4.53;;;;;;;;;;5072385;28;20446;-87
2023/01/16 08:27:42;;;;;;;7.72;5.57;;;;;;;;;;5083768;28;20393;-86
2023/01/16 08:30:09;;;;;;;4.63;4.10;;;;;;;;;;5071124;28;20380;-88
2023/01/16 08:32:35;;;;;;;6.73;4.37;;;;;;;;;;5072167;28;20409;-89
2023/01/16 08:35:03;;;;;;;5.75;3.78;;;;;;;;;;5072925;28;20387;-88
2023/01/16 08:37:29;;;;;;;4.40;3.83;;;;;;;;;;5054681;28;20778;-87
2023/01/16 08:39:55;;;;;;;8.13;5.85;;;;;;;;;;5053780;28;20471;-86
2023/01/16 08:53:19;;;;;;;6.28;4.45;;;;;;;;;;5072031;28;20959;-87
2023/01/16 08:55:45;;;;;;;4.50;3.90;;;;;;;;;;5071903;28;20380;-88
2023/01/16 08:58:11;;;;;;;5.82;4.63;;;;;;;;;;5053986;28;20785;-87
2023/01/16 09:00:37;;;;;;;6.38;5.00;;;;;;;;;;5071769;28;20392;-86
2023/01/16 09:03:03;;;;;;;5.50;4.20;;;;;;;;;;5071741;28;20412;-88
2023/01/16 09:05:29;;;;;;;4.72;3.60;;;;;;;;;;5062990;28;20405;-87
2023/01/16 09:07:56;;;;;;;7.43;6.60;;;;;;;;;;5071820;28;20383;-88
2023/01/16 09:10:22;;;;;;;4.40;3.40;;;;;;;;;;5071558;28;20392;-86
2023/01/16 09:15:32;;;;;;;5.63;4.60;;;;;;;;;;5071702;28;20375;-87
2023/01/16 09:17:58;;;;;;;6.85;4.70;;;;;;;;;;5071395;28;20387;-87
2023/01/16 09:20:24;;;;;;;6.25;5.25;;;;;;;;;;5068405;28;20922;-86
2023/01/16 09:22:57;;;;;;;7.68;4.85;;;;;;;;;;5071683;28;20384;-87
2023/01/16 09:25:23;;;;;;;5.30;3.95;;;;;;;;;;5071585;28;20395;-85
2023/01/16 09:27:49;;;;;;;7.38;6.15;;;;;;;;;;5071420;28;20386;-86
2023/01/16 09:30:15;;;;;;;8.10;7.30;;;;;;;;;;5067936;28;20751;-86
2023/01/16 09:32:41;;;;;;;6.03;3.90;;;;;;;;;;5067511;28;20380;-87
2023/01/16 09:35:07;;;;;;;6.30;4.60;;;;;;;;;;5070386;28;20383;-87
2023/01/16 09:37:33;;;;;;;7.07;4.25;;;;;;;;;;5070561;28;20896;-86
2023/01/16 09:39:59;;;;;;;7.40;4.70;;;;;;;;;;5071085;28;20412;-88
2023/01/16 09:45:14;;;;;;;6.53;4.80;;;;;;;;;;5072809;28;20572;-86
2023/01/16 09:47:44;;;;;;;6.55;4.72;;;;;;;;;;5074172;28;20546;-86
2023/01/16 09:50:16;;;;;;;6.20;4.25;;;;;;;;;;5070556;28;20394;-86
2023/01/16 09:58:35;;;;;;;6.80;4.55;;;;;;;;;;5066342;28;20379;-86
2023/01/16 10:01:02;;;;;;;3.60;3.30;;;;;;;;;;5077171;28;20375;-88
2023/01/16 10:03:27;;;;;;;3.67;2.60;;;;;;;;;;5074593;28;20380;-87
2023/01/16 10:06:12;;;;;;;3.27;2.43;;;;;;;;;;5066464;28;20387;-87
2023/01/16 10:08:38;;;;;;;2.00;1.80;;;;;;;;;;5074993;28;20436;-86
2023/01/16 10:11:30;;;;;;;2.75;2.25;;;;;;;;;;5056798;28;20838;-86
2023/01/16 10:14:15;;;;;;;2.90;2.08;;;;;;;;;;5041384;28;20432;-88
2023/01/16 10:16:41;;;;;;;3.17;2.00;;;;;;;;;;5075964;28;20512;-88
2023/01/16 10:19:10;;;;;;;7.15;3.92;;;;;;;;;;5064018;28;20820;-87
2023/01/16 10:21:48;;;;;;;8.75;4.20;;;;;;;;;;5061292;28;20380;-86
2023/01/16 10:24:25;;;;;;;3.35;2.28;;;;;;;;;;5063362;28;20409;-86
2023/01/16 10:26:57;;;;;;;3.92;2.97;;;;;;;;;;5072131;28;20424;-87
2023/01/16 10:29:28;;;;;;;6.13;3.40;;;;;;;;;;5072928;28;20737;-88
2023/01/16 10:31:59;;;;;;;4.13;3.08;;;;;;;;;;5074649;28;20455;-87
2023/01/16 10:34:38;;;;;;;3.83;2.90;;;;;;;;;;5067246;28;20391;-87
2023/01/16 10:37:05;;;;;;;3.90;2.75;;;;;;;;;;5073190;28;20474;-86
2023/01/16 10:39:33;;;;;;;2.92;2.13;;;;;;;;;;5074975;28;20562;-86
2023/01/16 10:50:46;;;;;;;2.40;1.85;;;;;;;;;;5082212;28;20473;-85
2023/01/16 10:53:12;;;;;;;3.78;2.60;;;;;;;;;;5073694;28;20371;-87
2023/01/16 10:55:44;;;;;;;2.60;2.13;;;;;;;;;;5074175;28;20861;-86
2023/01/16 10:58:29;;;;;;;1.90;1.63;;;;;;;;;;5076681;28;20493;-87
2023/01/16 11:00:59;;;;;;;2.28;1.75;;;;;;;;;;5077861;28;20921;-85
2023/01/16 11:03:34;;;;;;;2.77;1.67;;;;;;;;;;5073857;28;20424;-85
2023/01/16 11:06:06;;;;;;;2.40;1.60;;;;;;;;;;5071172;28;20425;-88
2023/01/16 11:08:33;;;;;;;2.65;1.58;;;;;;;;;;5074076;28;20457;-86
2023/01/16 11:10:59;;;;;;;1.60;1.50;;;;;;;;;;5053870;28;20407;-86
2023/01/16 11:18:59;;;;;;;2.92;2.00;;;;;;;;;;5073703;28;20827;-87
2023/01/16 11:21:27;;;;;;;2.47;1.75;;;;;;;;;;5073618;28;20376;-86
2023/01/16 11:24:15;;;;;;;2.75;1.30;;;;;;;;;;5073905;28;20399;-86
2023/01/16 11:26:42;;;;;;;1.98;1.40;;;;;;;;;;5055743;28;21634;-88
2023/01/16 11:29:12;;;;;;;2.00;1.30;;;;;;;;;;5055894;28;20803;-86
2023/01/16 11:31:38;;;;;;;4.18;2.38;;;;;;;;;;5073864;28;20760;-87
2023/01/16 11:34:11;;;;;;;3.47;2.50;;;;;;;;;;5073306;28;20876;-86
2023/01/16 11:36:38;;;;;;;3.70;2.25;;;;;;;;;;5067512;28;20896;-86
2023/01/16 11:39:05;;;;;;;1.92;1.60;;;;;;;;;;5072916;28;20372;-86
2023/01/16 11:41:38;;;;;;;4.10;2.00;;;;;;;;;;5073342;28;20413;-86
2023/01/16 11:46:57;;;;;;;3.40;2.20;;;;;;;;;;5073603;28;20725;-86
2023/01/16 11:49:34;;;;;;;5.82;4.22;;;;;;;;;;5073135;28;20424;-86
2023/01/16 11:52:03;;;;;;;7.13;3.38;;;;;;;;;;5072919;28;20379;-86
2023/01/16 11:54:31;;;;;;;4.20;2.05;;;;;;;;;;5073214;28;20383;-85
2023/01/16 11:57:11;;;;;;;1.60;1.40;;;;;;;;;;5073253;28;20394;-87
2023/01/16 12:00:00;;;;;;;3.20;2.40;;;;;;;;;;5051763;28;20745;-85
2023/01/16 12:02:45;;;;;;;3.28;2.10;;;;;;;;;;5075409;28;20380;-84
2023/01/16 12:08:26;;;;;;;1.60;1.50;;;;;;;;;;5060800;28;20718;-84
2023/01/16 12:10:52;;;;;;;2.10;1.88;;;;;;;;;;5063081;28;20822;-84
2023/01/16 12:16:23;;;;;;;2.73;1.63;;;;;;;;;;5072822;28;20971;-84
2023/01/16 12:18:52;;;;;;;1.40;1.30;;;;;;;;;;5065721;28;20481;-84
2023/01/16 12:21:21;;;;;;;1.98;1.60;;;;;;;;;;5067680;28;20439;-83
2023/01/16 12:23:47;;;;;;;1.65;1.55;;;;;;;;;;5061610;28;20450;-84
2023/01/16 12:26:19;;;;;;;2.13;1.60;;;;;;;;;;5079710;28;20411;-84
2023/01/16 12:28:46;;;;;;;1.50;1.40;;;;;;;;;;5071571;28;20449;-84
2023/01/16 12:31:30;;;;;;;3.08;1.80;;;;;;;;;;5069391;28;20402;-86
2023/01/16 12:34:00;;;;;;;2.83;1.85;;;;;;;;;;5072222;28;20442;-86
2023/01/16 12:36:35;;;;;;;1.80;1.30;;;;;;;;;;5071641;28;20428;-86
2023/01/16 12:39:18;;;;;;;2.92;1.67;;;;;;;;;;5069784;28;20396;-86
2023/01/16 12:45:02;;;;;;;2.55;1.90;;;;;;;;;;5072218;28;20539;-86
2023/01/16 12:47:36;;;;;;;1.55;1.38;;;;;;;;;;5072051;28;20371;-85
2023/01/16 12:50:08;;;;;;;2.00;1.73;;;;;;;;;;5071946;28;20384;-85
2023/01/16 12:52:43;;;;;;;2.13;1.57;;;;;;;;;;5071740;28;20428;-86
2023/01/16 12:55:28;;;;;;;1.80;1.60;;;;;;;;;;5072032;28;20424;-85
2023/01/16 12:57:59;;;;;;;2.40;1.60;;;;;;;;;;5072066;28;20432;-86
2023/01/16 13:00:28;;;;;;;2.55;1.63;;;;;;;;;;5067374;28;20410;-87
2023/01/16 13:03:20;;;;;;;2.35;1.73;;;;;;;;;;5072371;28;20572;-86
2023/01/16 13:05:46;;;;;;;2.53;1.30;;;;;;;;;;5039923;28;20437;-87
2023/01/16 13:08:12;;;;;;;1.67;1.08;;;;;;;;;;5071909;28;20421;-86
2023/01/16 13:13:28;;;;;;;5.27;2.40;;;;;;;;;;5065202;28;20592;-85
2023/01/16 13:15:59;;;;;;;4.28;2.63;;;;;;;;;;5067376;28;20861;-86
2023/01/16 13:18:33;;;;;;;4.75;2.95;;;;;;;;;;5064528;28;20474;-86
2023/01/16 13:21:00;;;;;;;2.60;1.80;;;;;;;;;;5063505;28;20382;-85
2023/01/16 13:23:34;;;;;;;2.60;1.05;;;;;;;;;;5071634;28;20467;-85
2023/01/16 13:26:04;;;;;;;7.75;3.17;;;;;;;;;;5071609;28;20435;-85
2023/01/16 13:28:33;;;;;;;3.83;2.17;;;;;;;;;;5071550;28;20431;-86
2023/01/16 13:31:02;;;;;;;3.13;1.42;;;;;;;;;;5071511;28;20378;-86
2023/01/16 13:33:33;;;;;;;4.00;1.88;;;;;;;;;;5071451;28;20466;-85
2023/01/16 13:36:15;;;;;;;3.55;2.13;;;;;;;;;;5071571;28;20893;-85
2023/01/16 13:39:00;;;;;;;4.47;2.67;;;;;;;;;;5070830;28;21338;-86
2023/01/16 13:41:30;;;;;;;4.45;2.80;;;;;;;;;;5066823;28;20531;-85
2023/01/16 13:46:47;;;;;;;3.87;2.60;;;;;;;;;;5071591;28;20439;-85
2023/01/16 13:49:20;;;;;;;5.38;3.20;;;;;;;;;;5070352;28;20503;-85
2023/01/16 13:51:47;;;;;;;4.43;2.70;;;;;;;;;;5069601;28;20455;-85
2023/01/16 13:54:36;;;;;;;7.32;3.72;;;;;;;;;;5071338;28;20424;-84
2023/01/16 13:57:03;;;;;;;4.68;2.75;;;;;;;;;;5071262;28;20450;-85
2023/01/16 13:59:47;;;;;;;3.60;2.25;;;;;;;;;;5071213;28;20398;-85
2023/01/16 14:02:27;;;;;;;5.25;3.00;;;;;;;;;;5071306;28;20399;-86
2023/01/16 14:05:05;;;;;;;5.90;3.63;;;;;;;;;;5073491;28;20884;-85
2023/01/16 14:10:41;;;;;;;2.92;2.03;;;;;;;;;;5071165;28;20398;-85
2023/01/16 14:13:15;;;;;;;4.43;2.85;;;;;;;;;;5053089;28;20433;-85
2023/01/16 14:18:37;;;;;;;2.33;1.90;;;;;;;;;;5071242;28;20416;-85
2023/01/16 14:21:04;;;;;;;2.90;1.50;;;;;;;;;;5071160;28;20445;-85
2023/01/16 14:26:21;;;;;;;1.05;0.90;;;;;;;;;;5071173;28;20466;-85
2023/01/16 14:28:50;;;;;;;2.25;0.70;;;;;;;;;;5070961;28;20412;-85
2023/01/16 14:31:22;;;;;;;1.30;0.80;;;;;;;;;;5074748;28;20803;-84
2023/01/16 14:33:48;;;;;;;1.30;0.80;;;;;;;;;;5074443;28;20476;-84
2023/01/16 14:36:14;;;;;;;1.00;0.80;;;;;;;;;;5074723;28;20380;-86
2023/01/16 14:38:45;;;;;;;0.90;0.60;;;;;;;;;;5073621;28;20394;-86
2023/01/16 14:55:54;;;;;;;1.30;1.00;;;;;;;;;;5074304;28;20439;-85
2023/01/16 14:58:27;;;;;;;2.13;0.93;;;;;;;;;;5073047;28;20395;-85
2023/01/16 15:00:56;;;;;;;1.15;0.80;;;;;;;;;;5073959;28;20931;-84
2023/01/16 15:03:28;;;;;;;1.20;0.80;;;;;;;;;;5076549;28;20474;-85
2023/01/16 15:05:58;;;;;;;1.10;0.90;;;;;;;;;;5065225;28;20455;-85
2023/01/16 15:08:29;;;;;;;1.42;0.75;;;;;;;;;;5074121;28;20479;-84
2023/01/16 15:10:56;;;;;;;1.45;0.80;;;;;;;;;;5073587;28;20468;-85
2023/01/16 15:13:23;;;;;;;2.47;1.17;;;;;;;;;;5073999;28;20403;-85
2023/01/16 15:16:09;;;;;;;2.47;1.30;;;;;;;;;;5056039;28;20392;-85
2023/01/16 15:24:16;;;;;;;9.43;5.60;;;;;;;;;;5073724;28;20957;-85
2023/01/16 15:26:42;;;;;;;7.25;4.20;;;;;;;;;;5073555;28;20432;-85
2023/01/16 15:29:19;;;;;;;6.00;3.50;;;;;;;;;;5073425;28;20420;-85
2023/01/16 15:32:02;;;;;;;4.30;2.20;;;;;;;;;;5073364;28;20412;-85
2023/01/16 15:34:28;;;;;;;1.40;0.80;;;;;;;;;;5064776;28;20382;-85
2023/01/16 15:36:56;;;;;;;0.88;0.70;;;;;;;;;;5057414;28;20380;-86
2023/01/16 15:39:38;;;;;;;1.10;0.88;;;;;;;;;;5044472;28;20793;-85
2023/01/16 15:47:41;;;;;;;1.35;0.50;;;;;;;;;;5065273;28;20466;-86
2023/01/16 15:50:07;;;;;;;1.35;0.75;;;;;;;;;;5071437;28;20379;-85
2023/01/16 15:52:39;;;;;;;2.30;1.60;;;;;;;;;;5073242;28;20784;-86
2023/01/16 15:55:09;;;;;;;0.73;0.73;;;;;;;;;;5073163;28;20376;-86
2023/01/16 15:57:35;;;;;;;1.08;0.70;;;;;;;;;;5070127;28;21019;-85
2023/01/16 16:00:01;;;;;;;1.20;0.60;;;;;;;;;;5071213;28;20481;-85
2023/01/16 16:02:29;;;;;;;0.50;0.50;;;;;;;;;;5071896;28;20471;-85
2023/01/16 16:04:56;;;;;;;1.00;0.75;;;;;;;;;;5068701;28;20767;-86
2023/01/16 16:07:22;;;;;;;1.80;0.70;;;;;;;;;;5070100;28;20379;-86
2023/01/16 16:09:50;;;;;;;1.20;0.80;;;;;;;;;;5085146;28;20459;-85
2023/01/16 16:12:18;;;;;;;1.20;0.70;;;;;;;;;;5072869;28;20500;-84
2023/01/16 16:20:39;;;;;;;0.90;0.80;;;;;;;;;;5072072;28;20386;-83
2023/01/16 16:23:14;;;;;;;0.68;0.50;;;;;;;;;;5053828;28;20942;-84
2023/01/16 16:25:43;;;;;;;2.20;0.80;;;;;;;;;;5070541;28;20482;-84
2023/01/16 16:28:18;;;;;;;1.95;1.00;;;;;;;;;;5072048;28;20417;-85
2023/01/16 16:30:44;;;;;;;0.82;0.55;;;;;;;;;;5069542;28;20417;-84
2023/01/16 16:33:17;;;;;;;0.80;0.50;;;;;;;;;;5072427;28;20376;-83
2023/01/16 16:35:47;;;;;;;0.40;0.40;;;;;;;;;;5071955;28;20425;-84
2023/01/16 16:38:25;;;;;;;0.50;0.50;;;;;;;;;;5068313;28;20427;-84
2023/01/16 16:41:07;;;;;;;0.65;0.60;;;;;;;;;;5066016;28;20533;-85
2023/01/16 16:43:46;;;;;;;1.05;0.57;;;;;;;;;;5067830;28;20846;-84